Last 24 Hours

BDVWA

Hourly Data | America/Los_Angeles
as of 9/5/26 6:42 PM PDT
Date & Time Temp (°F) RH (%) Dew Pt (°F) Wind Dir (°) Wind Spd (mph) Wind Gust (mph) Wind Gst Dir (°) Pressure (mb) Barometric Press (inHg) Soil Temp (°F) Solar Rad (W/m2) Latest Rain (In) Daily Rain (In) Daily Min Temp (°F) Daily Max Temp (°F) Daily Max Wind (mph) Daily ETo (in)
9/5/26 - 1800 84.3 30 49.4 SSW | 193 12.0 23.2 SSW | 208 1,007.2 29.71 88.1 276 0.00 0.00 59.6 88.0 36.0 0.260
9/5/26 - 1700 84.9 29 49.6 S | 185 12.8 23.0 S | 178 1,007.0 29.71 88.0 294 0.00 0.00 59.6 88.0 36.0 0.245
9/5/26 - 1600 86.5 28 49.2 S | 178 12.4 25.9 SSW | 213 1,006.8 29.70 88.1 627 0.00 0.00 59.6 88.0 36.0 0.227
9/5/26 - 1500 86.1 28 49.5 S | 172 12.8 27.2 S | 173 1,007.4 29.72 88.1 698 0.00 0.00 59.6 88.0 36.0 0.202
9/5/26 - 1400 86.5 28 49.7 S | 185 15.3 30.0 SSW | 213 1,007.5 29.72 88.3 861 0.00 0.00 59.6 88.0 36.0 0.174
9/5/26 - 1300 85.2 30 50.5 S | 178 16.6 31.4 SSE | 168 1,008.0 29.74 88.4 948 0.00 0.00 59.6 86.9 36.0 0.141
9/5/26 - 1200 84.3 27 46.4 S | 172 15.8 36.0 S | 179 1,008.6 29.75 88.6 929 0.00 0.00 59.6 85.4 36.0 0.107
9/5/26 - 1100 83.2 19 36.9 S | 170 14.3 31.1 SSE | 168 1,008.9 29.76 88.8 827 0.00 0.00 59.6 83.9 31.1 0.073
9/5/26 - 1000 78.0 19 31.8 ENE | 73 4.3 16.7 S | 182 1,010.4 29.81 88.9 627 0.00 0.00 59.6 82.3 16.7 0.041
9/5/26 - 0900 74.4 22 32.6 NE | 48 1.9 8.6 NE | 48 1,011.0 29.83 89.1 422 0.00 0.00 59.6 76.0 11.4 0.023
9/5/26 - 0800 68.0 27 32.5 WNW | 284 2.8 8.1 WSW | 247 1,012.3 29.86 89.3 201 0.00 0.00 59.6 71.5 11.4 0.012
9/5/26 - 0700 61.7 33 32.0 W | 263 5.2 8.8 WSW | 255 1,013.2 29.89 89.4 32 0.00 0.00 59.6 67.6 11.4 0.008
9/5/26 - 0600 61.1 33 31.8 W | 264 5.7 8.3 WSW | 254 1,012.8 29.88 89.5 0 0.00 0.00 59.6 67.6 11.4 0.006
9/5/26 - 0500 61.6 36 34.8 W | 272 5.0 9.6 SW | 222 1,012.6 29.87 89.5 0 0.00 0.00 59.6 67.6 11.4 0.004
9/5/26 - 0400 62.4 35 34.1 WSW | 247 2.6 6.1 WSW | 249 1,012.4 29.87 89.6 0 0.00 0.00 61.0 67.6 11.4 0.002
9/5/26 - 0300 63.3 33 33.9 W | 275 4.1 11.4 WSW | 254 1,012.1 29.86 89.6 0 0.00 0.00 62.2 67.6 11.4 0.002
9/5/26 - 0200 64.4 33 34.6 WNW | 282 3.5 8.6 W | 270 1,012.0 29.85 89.6 0 0.00 0.00 62.4 67.6 8.6 0.001
9/5/26 - 0100 68.3 30 36.0 W | 265 5.0 9.9 SW | 228 1,011.0 29.82 89.5 0 0.00 0.00 60.7 85.7 27.8 0.291
9/5/26 - 0000 68.7 29 35.1 SW | 227 4.4 9.0 SW | 225 1,010.6 29.81 89.4 0 0.00 0.00 60.7 85.7 27.8 0.289
9/4/26 - 2300 69.0 27 33.3 SW | 224 3.7 7.9 SSW | 193 1,010.2 29.80 89.3 0 0.00 0.00 60.7 85.7 27.8 0.287
9/4/26 - 2200 73.0 25 35.1 SSE | 147 5.0 11.2 SSE | 157 1,009.0 29.77 89.2 0 0.00 0.00 60.7 85.7 27.8 0.286
9/4/26 - 2100 76.6 21 34.2 SW | 217 6.7 14.9 SW | 236 1,007.5 29.72 89.0 0 0.00 0.00 60.7 85.7 27.8 0.284
9/4/26 - 2000 77.9 20 33.6 SSW | 210 10.7 20.8 SSW | 202 1,006.5 29.69 88.9 2 0.00 0.00 60.7 85.7 27.8 0.280
9/4/26 - 1900 80.7 17 32.5 SSW | 200 12.5 23.7 SW | 220 1,005.7 29.67 88.8 121 0.00 0.00 60.7 85.7 27.8 0.275
9/4/26 - 1800 82.6 17 32.9 SSW | 197 14.6 27.8 SSW | 203 1,005.2 29.65 88.7 303 0.00 0.00 60.7 85.7 27.8 0.262
Max 86.5 36 50.5 - 16.6 36.0 - 1,013.2 29.89 89.6 948 0.00 0.00 62.4 88.0 36.0 0.291
Avg 74.9 27 38.1 - 8.4 17.6 - 1,009.4 29.78 88.9 287 0.00 - - - - -
Min 61.1 17 31.8 - 1.9 6.1 - 1,005.2 29.65 88.0 0 0.00 0.00 59.6 67.6 8.6 0.001
Total - - - - - - - - - - - 0.00 - - - - -